sensor_id;sensor_type;location;lat;lon;timestamp;pressure;altitude;pressure_sealevel;temperature;humidity
78299;BME280;67556;55.656;12.590;2023-02-23T00:00:42;101494.56;;;3.95;77.13
78299;BME280;67556;55.656;12.590;2023-02-23T00:03:13;101482.31;;;3.95;76.80
78299;BME280;67556;55.656;12.590;2023-02-23T00:05:39;101475.13;;;3.93;76.81
78299;BME280;67556;55.656;12.590;2023-02-23T00:08:14;101475.13;;;3.93;76.71
78299;BME280;67556;55.656;12.590;2023-02-23T00:10:49;101482.22;;;3.94;76.71
78299;BME280;67556;55.656;12.590;2023-02-23T00:13:26;101468.59;;;3.88;77.20
78299;BME280;67556;55.656;12.590;2023-02-23T00:15:54;101478.06;;;3.97;76.79
78299;BME280;67556;55.656;12.590;2023-02-23T00:18:24;101464.34;;;3.90;77.47
78299;BME280;67556;55.656;12.590;2023-02-23T00:20:56;101470.53;;;3.90;76.68
78299;BME280;67556;55.656;12.590;2023-02-23T00:23:28;101475.56;;;3.87;76.83
78299;BME280;67556;55.656;12.590;2023-02-23T00:25:56;101459.75;;;3.87;76.69
78299;BME280;67556;55.656;12.590;2023-02-23T00:28:25;101425.25;;;3.59;76.97
78299;BME280;67556;55.656;12.590;2023-02-23T00:31:00;101449.47;;;3.79;77.42
78299;BME280;67556;55.656;12.590;2023-02-23T00:33:30;101451.75;;;3.74;77.23
78299;BME280;67556;55.656;12.590;2023-02-23T00:36:02;101451.09;;;3.77;77.08
78299;BME280;67556;55.656;12.590;2023-02-23T00:38:30;101440.56;;;3.77;77.09
78299;BME280;67556;55.656;12.590;2023-02-23T00:41:11;101433.72;;;3.67;77.54
78299;BME280;67556;55.656;12.590;2023-02-23T00:43:40;101450.03;;;3.74;77.63
78299;BME280;67556;55.656;12.590;2023-02-23T00:46:12;101426.81;;;3.69;77.48
78299;BME280;67556;55.656;12.590;2023-02-23T00:48:44;101434.25;;;3.74;77.51
78299;BME280;67556;55.656;12.590;2023-02-23T00:51:11;101414.00;;;3.62;77.79
78299;BME280;67556;55.656;12.590;2023-02-23T00:53:42;101427.97;;;3.72;77.68
78299;BME280;67556;55.656;12.590;2023-02-23T00:56:12;101412.41;;;3.64;77.22
78299;BME280;67556;55.656;12.590;2023-02-23T00:58:39;101425.31;;;3.72;77.40
78299;BME280;67556;55.656;12.590;2023-02-23T01:01:09;101428.78;;;3.71;77.73
78299;BME280;67556;55.656;12.590;2023-02-23T01:03:40;101429.44;;;3.69;77.25
78299;BME280;67556;55.656;12.590;2023-02-23T01:06:11;101419.97;;;3.71;77.31
78299;BME280;67556;55.656;12.590;2023-02-23T01:08:41;101425.91;;;3.68;77.94
78299;BME280;67556;55.656;12.590;2023-02-23T01:11:12;101403.72;;;3.53;77.38
78299;BME280;67556;55.656;12.590;2023-02-23T01:13:44;101430.00;;;3.77;77.14
78299;BME280;67556;55.656;12.590;2023-02-23T01:16:17;101415.59;;;3.71;77.10
78299;BME280;67556;55.656;12.590;2023-02-23T01:18:45;101427.28;;;3.75;76.82
78299;BME280;67556;55.656;12.590;2023-02-23T01:21:16;101416.50;;;3.72;76.93
78299;BME280;67556;55.656;12.590;2023-02-23T01:23:43;101433.06;;;3.83;77.02
78299;BME280;67556;55.656;12.590;2023-02-23T01:26:14;101437.56;;;3.84;76.78
78299;BME280;67556;55.656;12.590;2023-02-23T01:28:42;101436.28;;;3.79;77.22
78299;BME280;67556;55.656;12.590;2023-02-23T01:31:10;101425.97;;;3.82;76.83
78299;BME280;67556;55.656;12.590;2023-02-23T01:33:38;101431.47;;;3.85;76.75
78299;BME280;67556;55.656;12.590;2023-02-23T01:36:07;101418.06;;;3.82;76.84
78299;BME280;67556;55.656;12.590;2023-02-23T01:38:39;101421.75;;;3.84;76.32
78299;BME280;67556;55.656;12.590;2023-02-23T01:41:05;101418.06;;;3.82;76.63
78299;BME280;67556;55.656;12.590;2023-02-23T01:43:54;101422.91;;;3.75;77.37
78299;BME280;67556;55.656;12.590;2023-02-23T01:46:21;101423.13;;;3.79;76.97
78299;BME280;67556;55.656;12.590;2023-02-23T01:48:54;101415.22;;;3.79;76.80
78299;BME280;67556;55.656;12.590;2023-02-23T01:51:31;101416.91;;;3.90;76.63
78299;BME280;67556;55.656;12.590;2023-02-23T01:54:06;101402.94;;;3.79;76.47
78299;BME280;67556;55.656;12.590;2023-02-23T01:56:39;101399.88;;;3.73;76.57
78299;BME280;67556;55.656;12.590;2023-02-23T01:59:08;101398.31;;;3.75;76.46
78299;BME280;67556;55.656;12.590;2023-02-23T02:01:42;101382.13;;;3.70;76.83
78299;BME280;67556;55.656;12.590;2023-02-23T02:04:10;101398.03;;;3.84;76.47
78299;BME280;67556;55.656;12.590;2023-02-23T02:06:42;101392.78;;;3.84;75.99
78299;BME280;67556;55.656;12.590;2023-02-23T02:09:15;101394.81;;;3.88;76.37
78299;BME280;67556;55.656;12.590;2023-02-23T02:11:42;101399.94;;;3.98;75.68
78299;BME280;67556;55.656;12.590;2023-02-23T02:14:16;101378.84;;;3.98;75.77
78299;BME280;67556;55.656;12.590;2023-02-23T02:17:06;101360.28;;;3.71;76.26
78299;BME280;67556;55.656;12.590;2023-02-23T02:19:59;101372.47;;;3.83;76.73
78299;BME280;67556;55.656;12.590;2023-02-23T02:23:05;101364.38;;;3.80;76.39
78299;BME280;67556;55.656;12.590;2023-02-23T02:25:54;101376.50;;;3.78;77.17
78299;BME280;67556;55.656;12.590;2023-02-23T02:28:39;101363.34;;;3.78;76.92
78299;BME280;67556;55.656;12.590;2023-02-23T02:31:43;101330.19;;;3.56;76.68
78299;BME280;67556;55.656;12.590;2023-02-23T02:34:48;101353.97;;;3.69;76.72
78299;BME280;67556;55.656;12.590;2023-02-23T02:37:57;101357.19;;;3.65;77.33
78299;BME280;67556;55.656;12.590;2023-02-23T02:40:38;101339.34;;;3.61;77.33
78299;BME280;67556;55.656;12.590;2023-02-23T02:43:23;101351.06;;;3.78;77.26
78299;BME280;67556;55.656;12.590;2023-02-23T02:45:54;101351.78;;;3.75;77.03
78299;BME280;67556;55.656;12.590;2023-02-23T02:48:32;101341.34;;;3.77;77.06
78299;BME280;67556;55.656;12.590;2023-02-23T02:51:05;101328.53;;;3.70;76.98
78299;BME280;67556;55.656;12.590;2023-02-23T02:53:40;101343.66;;;3.72;76.98
78299;BME280;67556;55.656;12.590;2023-02-23T02:56:14;101327.22;;;3.63;76.70
78299;BME280;67556;55.656;12.590;2023-02-23T02:58:46;101337.03;;;3.66;77.57
78299;BME280;67556;55.656;12.590;2023-02-23T03:01:16;101327.63;;;3.69;77.40
78299;BME280;67556;55.656;12.590;2023-02-23T03:04:18;101339.34;;;3.61;77.55
78299;BME280;67556;55.656;12.590;2023-02-23T03:07:08;101330.63;;;3.62;77.60
78299;BME280;67556;55.656;12.590;2023-02-23T03:10:01;101326.41;;;3.64;77.49
78299;BME280;67556;55.656;12.590;2023-02-23T03:12:56;101324.25;;;3.59;77.64
78299;BME280;67556;55.656;12.590;2023-02-23T03:15:49;101319.31;;;3.63;77.21
78299;BME280;67556;55.656;12.590;2023-02-23T03:18:54;101298.09;;;3.62;77.21
78299;BME280;67556;55.656;12.590;2023-02-23T03:21:49;101296.78;;;3.55;77.73
78299;BME280;67556;55.656;12.590;2023-02-23T03:24:39;101290.47;;;3.53;77.76
78299;BME280;67556;55.656;12.590;2023-02-23T03:27:34;101271.66;;;3.35;77.86
78299;BME280;67556;55.656;12.590;2023-02-23T03:30:26;101277.69;;;3.46;77.88
78299;BME280;67556;55.656;12.590;2023-02-23T03:33:16;101273.88;;;3.54;77.58
78299;BME280;67556;55.656;12.590;2023-02-23T03:36:05;101276.41;;;3.53;78.25
78299;BME280;67556;55.656;12.590;2023-02-23T03:38:58;101281.78;;;3.54;78.23
78299;BME280;67556;55.656;12.590;2023-02-23T03:41:45;101270.91;;;3.49;79.03
78299;BME280;67556;55.656;12.590;2023-02-23T03:44:36;101275.47;;;3.52;78.53
78299;BME280;67556;55.656;12.590;2023-02-23T03:47:26;101286.47;;;3.58;78.09
78299;BME280;67556;55.656;12.590;2023-02-23T03:50:16;101273.66;;;3.51;78.21
78299;BME280;67556;55.656;12.590;2023-02-23T03:53:02;101272.53;;;3.47;78.37
78299;BME280;67556;55.656;12.590;2023-02-23T03:55:51;101273.75;;;3.53;78.61
78299;BME280;67556;55.656;12.590;2023-02-23T03:58:40;101281.56;;;3.51;78.32
78299;BME280;67556;55.656;12.590;2023-02-23T04:01:30;101273.44;;;3.48;78.67
78299;BME280;67556;55.656;12.590;2023-02-23T04:04:16;101274.25;;;3.47;78.52
78299;BME280;67556;55.656;12.590;2023-02-23T04:07:01;101263.72;;;3.47;78.08
78299;BME280;67556;55.656;12.590;2023-02-23T04:09:53;101271.84;;;3.50;78.56
78299;BME280;67556;55.656;12.590;2023-02-23T04:12:51;101267.34;;;3.49;78.33
78299;BME280;67556;55.656;12.590;2023-02-23T04:15:39;101277.69;;;3.46;78.84
78299;BME280;67556;55.656;12.590;2023-02-23T04:18:25;101273.88;;;3.54;78.31
78299;BME280;67556;55.656;12.590;2023-02-23T04:20:54;101284.25;;;3.64;77.92
78299;BME280;67556;55.656;12.590;2023-02-23T04:23:24;101291.06;;;3.74;77.67
78299;BME280;67556;55.656;12.590;2023-02-23T04:25:51;101279.47;;;3.59;77.87
78299;BME280;67556;55.656;12.590;2023-02-23T04:28:20;101291.59;;;3.57;77.77
78299;BME280;67556;55.656;12.590;2023-02-23T04:30:54;101272.94;;;3.54;78.37
78299;BME280;67556;55.656;12.590;2023-02-23T04:33:23;101289.88;;;3.57;77.82
78299;BME280;67556;55.656;12.590;2023-02-23T04:35:57;101281.94;;;3.69;78.10
78299;BME280;67556;55.656;12.590;2023-02-23T04:38:24;101278.31;;;3.67;77.57
78299;BME280;67556;55.656;12.590;2023-02-23T04:40:59;101281.28;;;3.60;77.90
78299;BME280;67556;55.656;12.590;2023-02-23T04:43:36;101285.97;;;3.64;78.43
78299;BME280;67556;55.656;12.590;2023-02-23T04:46:04;101283.34;;;3.64;78.39
78299;BME280;67556;55.656;12.590;2023-02-23T04:48:46;101271.09;;;3.64;78.10
78299;BME280;67556;55.656;12.590;2023-02-23T04:51:14;101276.13;;;3.61;78.74
78299;BME280;67556;55.656;12.590;2023-02-23T04:53:57;101269.94;;;3.61;78.21
78299;BME280;67556;55.656;12.590;2023-02-23T04:56:24;101270.66;;;3.58;78.77
78299;BME280;67556;55.656;12.590;2023-02-23T04:59:05;101269.84;;;3.59;78.37
78299;BME280;67556;55.656;12.590;2023-02-23T05:01:39;101274.09;;;3.57;78.43
78299;BME280;67556;55.656;12.590;2023-02-23T05:04:07;101268.81;;;3.57;78.48
78299;BME280;67556;55.656;12.590;2023-02-23T05:06:35;101256.81;;;3.49;78.80
78299;BME280;67556;55.656;12.590;2023-02-23T05:09:03;101260.03;;;3.45;78.88
78299;BME280;67556;55.656;12.590;2023-02-23T05:11:31;101261.56;;;3.41;78.65
78299;BME280;67556;55.656;12.590;2023-02-23T05:14:00;101247.59;;;3.42;79.30
78299;BME280;67556;55.656;12.590;2023-02-23T05:16:37;101254.91;;;3.46;79.25
78299;BME280;67556;55.656;12.590;2023-02-23T05:19:04;101241.75;;;3.46;79.24
78299;BME280;67556;55.656;12.590;2023-02-23T05:21:44;101247.44;;;3.53;79.25
78299;BME280;67556;55.656;12.590;2023-02-23T05:24:11;101245.69;;;3.53;79.43
78299;BME280;67556;55.656;12.590;2023-02-23T05:26:38;101243.56;;;3.47;79.10
78299;BME280;67556;55.656;12.590;2023-02-23T05:29:15;101218.50;;;3.41;79.93
78299;BME280;67556;55.656;12.590;2023-02-23T05:32:01;101225.63;;;3.42;80.26
78299;BME280;67556;55.656;12.590;2023-02-23T05:34:37;101230.66;;;3.39;80.08
78299;BME280;67556;55.656;12.590;2023-02-23T05:37:17;101219.22;;;3.38;80.10
78299;BME280;67556;55.656;12.590;2023-02-23T05:40:03;101210.28;;;3.36;80.43
78299;BME280;67556;55.656;12.590;2023-02-23T05:42:30;101209.38;;;3.36;80.52
78299;BME280;67556;55.656;12.590;2023-02-23T05:44:56;101203.69;;;3.30;80.99
78299;BME280;67556;55.656;12.590;2023-02-23T05:47:31;101211.59;;;3.30;81.23
78299;BME280;67556;55.656;12.590;2023-02-23T05:50:10;101207.13;;;3.29;81.21
78299;BME280;67556;55.656;12.590;2023-02-23T05:52:39;101216.97;;;3.31;81.22
78299;BME280;67556;55.656;12.590;2023-02-23T05:55:21;101211.00;;;3.34;82.16
78299;BME280;67556;55.656;12.590;2023-02-23T05:57:56;101201.38;;;3.34;81.67
78299;BME280;67556;55.656;12.590;2023-02-23T06:00:24;101192.25;;;3.29;82.08
78299;BME280;67556;55.656;12.590;2023-02-23T06:02:58;101185.63;;;3.22;82.59
78299;BME280;67556;55.656;12.590;2023-02-23T06:05:25;101167.81;;;3.18;82.69
78299;BME280;67556;55.656;12.590;2023-02-23T06:07:56;101162.31;;;3.15;82.83
78299;BME280;67556;55.656;12.590;2023-02-23T06:10:50;101175.28;;;3.12;82.98
78299;BME280;67556;55.656;12.590;2023-02-23T06:13:19;101197.44;;;3.16;82.96
78299;BME280;67556;55.656;12.590;2023-02-23T06:15:48;101199.38;;;3.18;83.44
78299;BME280;67556;55.656;12.590;2023-02-23T06:18:15;101210.13;;;3.21;83.15
78299;BME280;67556;55.656;12.590;2023-02-23T06:20:42;101204.84;;;3.33;82.50
78299;BME280;67556;55.656;12.590;2023-02-23T06:23:11;101207.13;;;3.29;82.39
78299;BME280;67556;55.656;12.590;2023-02-23T06:25:39;101206.91;;;3.25;82.80
78299;BME280;67556;55.656;12.590;2023-02-23T06:28:08;101199.84;;;3.24;83.16
78299;BME280;67556;55.656;12.590;2023-02-23T06:30:35;101204.47;;;3.29;82.91
78299;BME280;67556;55.656;12.590;2023-02-23T06:33:02;101202.56;;;3.26;82.87
78299;BME280;67556;55.656;12.590;2023-02-23T06:35:29;101210.19;;;3.35;82.98
78299;BME280;67556;55.656;12.590;2023-02-23T06:37:56;101206.53;;;3.33;82.86
78299;BME280;67556;55.656;12.590;2023-02-23T06:40:24;101205.34;;;3.41;83.00
78299;BME280;67556;55.656;12.590;2023-02-23T06:42:50;101210.75;;;3.42;82.84
78299;BME280;67556;55.656;12.590;2023-02-23T06:45:18;101211.88;;;3.46;82.96
78299;BME280;67556;55.656;12.590;2023-02-23T06:47:44;101220.56;;;3.45;83.08
78299;BME280;67556;55.656;12.590;2023-02-23T06:50:11;101210.03;;;3.45;82.90
78299;BME280;67556;55.656;12.590;2023-02-23T06:52:45;101208.97;;;3.55;82.32
78299;BME280;67556;55.656;12.590;2023-02-23T06:55:12;101199.94;;;3.51;82.12
78299;BME280;67556;55.656;12.590;2023-02-23T06:57:42;101206.44;;;3.56;82.15
78299;BME280;67556;55.656;12.590;2023-02-23T07:00:09;101207.25;;;3.55;82.28
78299;BME280;67556;55.656;12.590;2023-02-23T07:02:39;101193.16;;;3.55;82.42
78299;BME280;67556;55.656;12.590;2023-02-23T07:05:07;101196.94;;;3.58;82.48
78299;BME280;67556;55.656;12.590;2023-02-23T07:07:34;101198.75;;;3.59;82.10
78299;BME280;67556;55.656;12.590;2023-02-23T07:10:02;101205.84;;;3.60;80.66
78299;BME280;67556;55.656;12.590;2023-02-23T07:12:29;101206.66;;;3.59;80.70
78299;BME280;67556;55.656;12.590;2023-02-23T07:14:57;101202.19;;;3.58;80.50
78299;BME280;67556;55.656;12.590;2023-02-23T07:17:24;101187.16;;;3.57;80.37
78299;BME280;67556;55.656;12.590;2023-02-23T07:19:50;101182.94;;;3.59;80.41
78299;BME280;67556;55.656;12.590;2023-02-23T07:22:16;101188.81;;;3.55;80.37
78299;BME280;67556;55.656;12.590;2023-02-23T07:24:44;101188.91;;;3.57;80.42
78299;BME280;67556;55.656;12.590;2023-02-23T07:27:10;101202.38;;;3.61;80.55
78299;BME280;67556;55.656;12.590;2023-02-23T07:29:37;101201.69;;;3.64;79.76
78299;BME280;67556;55.656;12.590;2023-02-23T07:32:06;101202.50;;;3.63;80.09
78299;BME280;67556;55.656;12.590;2023-02-23T07:34:33;101200.34;;;3.57;80.22
78299;BME280;67556;55.656;12.590;2023-02-23T07:37:00;101208.38;;;3.59;79.77
78299;BME280;67556;55.656;12.590;2023-02-23T07:39:26;101212.09;;;3.62;79.81
78299;BME280;67556;55.656;12.590;2023-02-23T07:41:53;101230.06;;;3.68;79.65
78299;BME280;67556;55.656;12.590;2023-02-23T07:44:20;101220.00;;;3.62;80.49
78299;BME280;67556;55.656;12.590;2023-02-23T07:46:46;101230.16;;;3.69;80.70
78299;BME280;67556;55.656;12.590;2023-02-23T07:49:17;101219.63;;;3.69;80.44
78299;BME280;67556;55.656;12.590;2023-02-23T07:51:43;101211.72;;;3.69;80.64
78299;BME280;67556;55.656;12.590;2023-02-23T07:54:12;101201.91;;;3.67;80.49
78299;BME280;67556;55.656;12.590;2023-02-23T07:56:39;101192.47;;;3.70;80.59
78299;BME280;67556;55.656;12.590;2023-02-23T07:59:05;101196.53;;;3.79;80.54
78299;BME280;67556;55.656;12.590;2023-02-23T08:01:32;101208.13;;;3.81;80.73
78299;BME280;67556;55.656;12.590;2023-02-23T08:03:58;101200.00;;;3.78;79.86
78299;BME280;67556;55.656;12.590;2023-02-23T08:06:29;101201.81;;;3.79;80.03
78299;BME280;67556;55.656;12.590;2023-02-23T08:08:57;101203.84;;;3.83;80.42
78299;BME280;67556;55.656;12.590;2023-02-23T08:11:24;101207.75;;;3.88;80.01
78299;BME280;67556;55.656;12.590;2023-02-23T08:13:54;101200.53;;;3.85;78.97
78299;BME280;67556;55.656;12.590;2023-02-23T08:16:24;101192.31;;;3.81;79.42
78299;BME280;67556;55.656;12.590;2023-02-23T08:18:52;101195.16;;;3.84;79.40
78299;BME280;67556;55.656;12.590;2023-02-23T08:21:20;101193.53;;;3.86;79.30
78299;BME280;67556;55.656;12.590;2023-02-23T08:23:47;101194.72;;;3.78;78.91
78299;BME280;67556;55.656;12.590;2023-02-23T08:26:14;101184.69;;;3.72;79.31
78299;BME280;67556;55.656;12.590;2023-02-23T08:28:40;101183.66;;;3.70;79.66
78299;BME280;67556;55.656;12.590;2023-02-23T08:31:10;101165.03;;;3.67;79.95
78299;BME280;67556;55.656;12.590;2023-02-23T08:33:37;101161.91;;;3.72;79.62
78299;BME280;67556;55.656;12.590;2023-02-23T08:36:04;101159.06;;;3.83;79.95
78299;BME280;67556;55.656;12.590;2023-02-23T08:38:31;101149.56;;;3.85;79.54
78299;BME280;67556;55.656;12.590;2023-02-23T08:41:00;101157.06;;;3.92;79.54
78299;BME280;67556;55.656;12.590;2023-02-23T08:43:27;101174.19;;;3.85;79.69
78299;BME280;67556;55.656;12.590;2023-02-23T08:45:55;101170.03;;;3.89;79.40
78299;BME280;67556;55.656;12.590;2023-02-23T08:48:21;101171.84;;;3.90;79.55
78299;BME280;67556;55.656;12.590;2023-02-23T08:50:48;101175.91;;;3.85;79.60
78299;BME280;67556;55.656;12.590;2023-02-23T08:53:15;101147.81;;;3.72;79.89
78299;BME280;67556;55.656;12.590;2023-02-23T08:55:42;101161.59;;;3.68;80.41
78299;BME280;67556;55.656;12.590;2023-02-23T08:58:10;101158.56;;;3.75;80.15
78299;BME280;67556;55.656;12.590;2023-02-23T09:00:37;101152.34;;;3.74;80.81
78299;BME280;67556;55.656;12.590;2023-02-23T09:03:05;101157.25;;;3.82;80.71
78299;BME280;67556;55.656;12.590;2023-02-23T09:05:32;101157.84;;;3.78;80.89
78299;BME280;67556;55.656;12.590;2023-02-23T09:08:02;101150.16;;;3.67;80.29
78299;BME280;67556;55.656;12.590;2023-02-23T09:10:29;101141.81;;;3.61;81.20
78299;BME280;67556;55.656;12.590;2023-02-23T09:12:57;101143.25;;;3.69;81.59
78299;BME280;67556;55.656;12.590;2023-02-23T09:15:25;101148.81;;;3.74;82.40
78299;BME280;67556;55.656;12.590;2023-02-23T09:17:51;101141.13;;;3.77;81.42
78299;BME280;67556;55.656;12.590;2023-02-23T09:20:19;101143.69;;;3.75;82.05
78299;BME280;67556;55.656;12.590;2023-02-23T09:22:51;101142.03;;;3.78;82.18
78299;BME280;67556;55.656;12.590;2023-02-23T09:25:18;101146.91;;;3.71;82.44
78299;BME280;67556;55.656;12.590;2023-02-23T09:27:48;101146.09;;;3.72;82.11
78299;BME280;67556;55.656;12.590;2023-02-23T09:30:16;101138.78;;;3.68;81.99
78299;BME280;67556;55.656;12.590;2023-02-23T09:32:46;101134.34;;;3.67;81.97
78299;BME280;67556;55.656;12.590;2023-02-23T09:35:13;101137.88;;;3.68;82.00
78299;BME280;67556;55.656;12.590;2023-02-23T09:37:42;101125.63;;;3.82;82.02
78299;BME280;67556;55.656;12.590;2023-02-23T09:40:13;101128.06;;;3.79;82.08
78299;BME280;67556;55.656;12.590;2023-02-23T09:42:45;101118.72;;;3.70;82.55
78299;BME280;67556;55.656;12.590;2023-02-23T09:45:29;101125.63;;;3.68;82.17
78299;BME280;67556;55.656;12.590;2023-02-23T09:48:12;101132.50;;;3.66;82.88
78299;BME280;67556;55.656;12.590;2023-02-23T09:50:43;101134.22;;;3.79;82.22
78299;BME280;67556;55.656;12.590;2023-02-23T09:53:23;101133.00;;;3.74;82.08
78299;BME280;67556;55.656;12.590;2023-02-23T09:55:52;101141.25;;;3.92;81.74
78299;BME280;67556;55.656;12.590;2023-02-23T09:58:22;101144.22;;;3.96;81.79
78299;BME280;67556;55.656;12.590;2023-02-23T10:01:08;101147.31;;;3.91;81.31
78299;BME280;67556;55.656;12.590;2023-02-23T10:03:49;101141.66;;;3.85;81.39
78299;BME280;67556;55.656;12.590;2023-02-23T10:06:19;101142.47;;;3.84;82.27
78299;BME280;67556;55.656;12.590;2023-02-23T10:08:55;101131.72;;;3.94;82.03
78299;BME280;67556;55.656;12.590;2023-02-23T10:11:28;101127.44;;;3.96;81.52
78299;BME280;67556;55.656;12.590;2023-02-23T10:14:09;101129.31;;;3.97;81.78
78299;BME280;67556;55.656;12.590;2023-02-23T10:16:47;101122.59;;;3.89;81.68
78299;BME280;67556;55.656;12.590;2023-02-23T10:19:33;101123.22;;;3.85;82.13
78299;BME280;67556;55.656;12.590;2023-02-23T10:22:04;101121.91;;;4.05;81.71
78299;BME280;67556;55.656;12.590;2023-02-23T10:24:36;101123.50;;;4.03;81.67
78299;BME280;67556;55.656;12.590;2023-02-23T10:27:14;101118.63;;;4.09;81.67
78299;BME280;67556;55.656;12.590;2023-02-23T10:29:46;101123.31;;;3.99;81.55
78299;BME280;67556;55.656;12.590;2023-02-23T10:32:19;101111.47;;;3.93;81.97
78299;BME280;67556;55.656;12.590;2023-02-23T10:34:54;101115.69;;;4.04;81.48
78299;BME280;67556;55.656;12.590;2023-02-23T10:37:39;101123.22;;;4.11;81.31
78299;BME280;67556;55.656;12.590;2023-02-23T10:40:14;101126.66;;;4.23;81.30
78299;BME280;67556;55.656;12.590;2023-02-23T10:42:41;101120.25;;;4.20;81.50
78299;BME280;67556;55.656;12.590;2023-02-23T10:45:12;101116.63;;;4.18;81.57
78299;BME280;67556;55.656;12.590;2023-02-23T10:47:54;101119.75;;;4.12;81.58
78299;BME280;67556;55.656;12.590;2023-02-23T10:50:23;101113.75;;;4.28;81.47
78299;BME280;67556;55.656;12.590;2023-02-23T10:52:58;101110.31;;;4.16;82.30
78299;BME280;67556;55.656;12.590;2023-02-23T10:55:30;101105.16;;;4.31;82.04
78299;BME280;67556;55.656;12.590;2023-02-23T10:58:05;101106.97;;;4.32;81.74
78299;BME280;67556;55.656;12.590;2023-02-23T11:00:34;101093.81;;;4.18;82.53
78299;BME280;67556;55.656;12.590;2023-02-23T11:03:15;101102.22;;;4.13;82.78
78299;BME280;67556;55.656;12.590;2023-02-23T11:05:47;101100.09;;;4.07;83.61
78299;BME280;67556;55.656;12.590;2023-02-23T11:08:20;101099.50;;;4.11;83.27
78299;BME280;67556;55.656;12.590;2023-02-23T11:10:55;101091.56;;;4.24;83.02
78299;BME280;67556;55.656;12.590;2023-02-23T11:13:25;101084.69;;;4.27;82.68
78299;BME280;67556;55.656;12.590;2023-02-23T11:15:58;101076.66;;;4.12;83.25
78299;BME280;67556;55.656;12.590;2023-02-23T11:18:26;101067.25;;;4.02;84.21
78299;BME280;67556;55.656;12.590;2023-02-23T11:20:56;101063.41;;;4.10;84.00
78299;BME280;67556;55.656;12.590;2023-02-23T11:23:25;101058.09;;;4.23;83.60
78299;BME280;67556;55.656;12.590;2023-02-23T11:25:57;101064.59;;;4.15;83.82
78299;BME280;67556;55.656;12.590;2023-02-23T11:28:28;101057.53;;;4.14;84.15
78299;BME280;67556;55.656;12.590;2023-02-23T11:30:57;101059.88;;;4.38;83.60
78299;BME280;67556;55.656;12.590;2023-02-23T11:33:31;101051.53;;;4.30;83.52
78299;BME280;67556;55.656;12.590;2023-02-23T11:36:15;101042.91;;;4.19;84.04
78299;BME280;67556;55.656;12.590;2023-02-23T11:38:44;101042.38;;;4.25;83.42
78299;BME280;67556;55.656;12.590;2023-02-23T11:41:30;101036.19;;;4.24;84.20
78299;BME280;67556;55.656;12.590;2023-02-23T11:44:00;101028.53;;;4.14;84.16
78299;BME280;67556;55.656;12.590;2023-02-23T11:46:30;101022.03;;;4.22;84.34
78299;BME280;67556;55.656;12.590;2023-02-23T11:48:59;101025.84;;;4.28;84.28
78299;BME280;67556;55.656;12.590;2023-02-23T11:51:37;101023.13;;;4.26;84.60
78299;BME280;67556;55.656;12.590;2023-02-23T11:54:26;101018.78;;;4.27;84.62
78299;BME280;67556;55.656;12.590;2023-02-23T11:56:54;101010.84;;;4.27;84.48
78299;BME280;67556;55.656;12.590;2023-02-23T11:59:32;100997.84;;;4.30;84.81
78299;BME280;67556;55.656;12.590;2023-02-23T12:02:20;101012.97;;;4.32;84.09
78299;BME280;67556;55.656;12.590;2023-02-23T12:04:51;101013.88;;;4.33;84.56
78299;BME280;67556;55.656;12.590;2023-02-23T12:07:24;101012.59;;;4.26;84.47
78299;BME280;67556;55.656;12.590;2023-02-23T12:10:02;101016.03;;;4.12;84.97
78299;BME280;67556;55.656;12.590;2023-02-23T12:12:44;101019.28;;;4.21;85.29
78299;BME280;67556;55.656;12.590;2023-02-23T12:15:20;101013.50;;;4.27;84.77
78299;BME280;67556;55.656;12.590;2023-02-23T12:17:59;101012.25;;;4.35;84.80
78299;BME280;67556;55.656;12.590;2023-02-23T12:20:48;101005.34;;;4.37;84.67
78299;BME280;67556;55.656;12.590;2023-02-23T12:23:28;100998.13;;;4.62;83.98
78299;BME280;67556;55.656;12.590;2023-02-23T12:26:03;101002.03;;;4.54;84.37
78299;BME280;67556;55.656;12.590;2023-02-23T12:28:35;100981.03;;;4.56;84.10
78299;BME280;67556;55.656;12.590;2023-02-23T12:31:06;100994.41;;;4.59;84.28
78299;BME280;67556;55.656;12.590;2023-02-23T12:33:45;100985.50;;;4.71;83.58
78299;BME280;67556;55.656;12.590;2023-02-23T12:36:22;100989.16;;;4.73;83.55
78299;BME280;67556;55.656;12.590;2023-02-23T12:38:59;100976.88;;;4.74;83.52
78299;BME280;67556;55.656;12.590;2023-02-23T12:41:31;100980.84;;;4.67;83.84
78299;BME280;67556;55.656;12.590;2023-02-23T12:44:33;100950.94;;;4.67;83.51
78299;BME280;67556;55.656;12.590;2023-02-23T12:47:06;100947.88;;;4.74;83.52
78299;BME280;67556;55.656;12.590;2023-02-23T12:49:48;100934.75;;;4.61;83.68
78299;BME280;67556;55.656;12.590;2023-02-23T12:52:21;100943.69;;;4.78;83.22
78299;BME280;67556;55.656;12.590;2023-02-23T12:55:12;100960.88;;;4.86;83.38
78299;BME280;67556;55.656;12.590;2023-02-23T12:57:46;100958.13;;;4.84;83.84
78299;BME280;67556;55.656;12.590;2023-02-23T13:00:41;100963.63;;;4.72;83.99
78299;BME280;67556;55.656;12.590;2023-02-23T13:03:23;100952.88;;;4.69;84.32
78299;BME280;67556;55.656;12.590;2023-02-23T13:06:06;100967.44;;;4.78;84.34
78299;BME280;67556;55.656;12.590;2023-02-23T13:08:57;100955.31;;;4.66;84.47
78299;BME280;67556;55.656;12.590;2023-02-23T13:14:37;100952.72;;;5.11;83.55
78299;BME280;67556;55.656;12.590;2023-02-23T13:17:24;100944.88;;;5.12;83.60
78299;BME280;67556;55.656;12.590;2023-02-23T13:19:57;100939.03;;;4.88;84.36
78299;BME280;67556;55.656;12.590;2023-02-23T13:22:30;100941.41;;;4.84;84.58
78299;BME280;67556;55.656;12.590;2023-02-23T13:25:01;100948.78;;;4.74;85.36
78299;BME280;67556;55.656;12.590;2023-02-23T13:27:34;100942.50;;;4.87;84.79
78299;BME280;67556;55.656;12.590;2023-02-23T13:30:03;100941.88;;;4.77;85.42